sensor_id;sensor_type;location;lat;lon;timestamp;pressure;altitude;pressure_sealevel;temperature
67501;BMP180;54349;52.528;19.760;2023-03-12T00:01:22;99569.40;;;21.10
67501;BMP180;54349;52.528;19.760;2023-03-12T00:03:50;99565.40;;;21.10
67501;BMP180;54349;52.528;19.760;2023-03-12T00:06:20;99562.20;;;21.10
67501;BMP180;54349;52.528;19.760;2023-03-12T00:08:49;99563.40;;;21.10
67501;BMP180;54349;52.528;19.760;2023-03-12T00:11:19;99557.40;;;21.16
67501;BMP180;54349;52.528;19.760;2023-03-12T00:13:54;99555.20;;;21.12
67501;BMP180;54349;52.528;19.760;2023-03-12T00:16:24;99550.60;;;21.10
67501;BMP180;54349;52.528;19.760;2023-03-12T00:18:54;99550.60;;;21.10
67501;BMP180;54349;52.528;19.760;2023-03-12T00:21:23;99551.80;;;21.10
67501;BMP180;54349;52.528;19.760;2023-03-12T00:23:52;99548.00;;;21.10
67501;BMP180;54349;52.528;19.760;2023-03-12T00:26:22;99543.40;;;21.10
67501;BMP180;54349;52.528;19.760;2023-03-12T00:28:51;99550.00;;;21.10
67501;BMP180;54349;52.528;19.760;2023-03-12T00:31:30;99541.60;;;21.10
67501;BMP180;54349;52.528;19.760;2023-03-12T00:34:01;99542.80;;;21.10
67501;BMP180;54349;52.528;19.760;2023-03-12T00:36:32;99532.60;;;21.10
67501;BMP180;54349;52.528;19.760;2023-03-12T00:39:01;99533.60;;;21.10
67501;BMP180;54349;52.528;19.760;2023-03-12T00:41:30;99530.40;;;21.10
67501;BMP180;54349;52.528;19.760;2023-03-12T00:43:59;99526.60;;;21.10
67501;BMP180;54349;52.528;19.760;2023-03-12T00:46:28;99519.80;;;21.10
67501;BMP180;54349;52.528;19.760;2023-03-12T00:48:56;99521.80;;;21.10
67501;BMP180;54349;52.528;19.760;2023-03-12T00:51:25;99524.60;;;21.10
67501;BMP180;54349;52.528;19.760;2023-03-12T00:53:53;99521.60;;;21.10
67501;BMP180;54349;52.528;19.760;2023-03-12T00:56:24;99518.60;;;21.12
67501;BMP180;54349;52.528;19.760;2023-03-12T00:58:53;99515.20;;;21.10
67501;BMP180;54349;52.528;19.760;2023-03-12T01:01:23;99509.00;;;21.16
67501;BMP180;54349;52.528;19.760;2023-03-12T01:03:54;99510.60;;;21.14
67501;BMP180;54349;52.528;19.760;2023-03-12T01:06:24;99510.60;;;21.10
67501;BMP180;54349;52.528;19.760;2023-03-12T01:08:52;99512.40;;;21.10
67501;BMP180;54349;52.528;19.760;2023-03-12T01:11:22;99512.80;;;21.10
67501;BMP180;54349;52.528;19.760;2023-03-12T01:13:51;99518.60;;;21.10
67501;BMP180;54349;52.528;19.760;2023-03-12T01:16:19;99509.80;;;21.10
67501;BMP180;54349;52.528;19.760;2023-03-12T01:18:48;99512.20;;;21.10
67501;BMP180;54349;52.528;19.760;2023-03-12T01:21:16;99512.80;;;21.10
67501;BMP180;54349;52.528;19.760;2023-03-12T01:23:44;99508.00;;;21.10
67501;BMP180;54349;52.528;19.760;2023-03-12T01:26:12;99507.80;;;21.10
67501;BMP180;54349;52.528;19.760;2023-03-12T01:28:43;99503.80;;;21.10
67501;BMP180;54349;52.528;19.760;2023-03-12T01:31:17;99502.60;;;21.10
67501;BMP180;54349;52.528;19.760;2023-03-12T01:33:51;99498.80;;;21.10
67501;BMP180;54349;52.528;19.760;2023-03-12T01:36:23;99495.00;;;21.10
67501;BMP180;54349;52.528;19.760;2023-03-12T01:38:58;99491.60;;;21.10
67501;BMP180;54349;52.528;19.760;2023-03-12T01:41:29;99484.00;;;21.12
67501;BMP180;54349;52.528;19.760;2023-03-12T01:44:00;99482.60;;;21.10
67501;BMP180;54349;52.528;19.760;2023-03-12T01:46:38;99485.80;;;21.10
67501;BMP180;54349;52.528;19.760;2023-03-12T01:52:07;99488.80;;;21.10
67501;BMP180;54349;52.528;19.760;2023-03-12T01:54:56;99478.20;;;21.10
67501;BMP180;54349;52.528;19.760;2023-03-12T01:57:51;99477.40;;;21.10
67501;BMP180;54349;52.528;19.760;2023-03-12T02:00:25;99484.00;;;21.10
67501;BMP180;54349;52.528;19.760;2023-03-12T02:03:00;99489.40;;;21.10
67501;BMP180;54349;52.528;19.760;2023-03-12T02:06:06;99489.60;;;21.10
67501;BMP180;54349;52.528;19.760;2023-03-12T02:08:40;99486.20;;;21.08
67501;BMP180;54349;52.528;19.760;2023-03-12T02:11:11;99485.60;;;21.06
67501;BMP180;54349;52.528;19.760;2023-03-12T02:13:39;99496.00;;;21.00
67501;BMP180;54349;52.528;19.760;2023-03-12T02:16:09;99495.20;;;21.00
67501;BMP180;54349;52.528;19.760;2023-03-12T02:18:38;99500.60;;;21.00
67501;BMP180;54349;52.528;19.760;2023-03-12T02:21:33;99509.00;;;21.00
67501;BMP180;54349;52.528;19.760;2023-03-12T02:26:40;99504.60;;;20.92
67501;BMP180;54349;52.528;19.760;2023-03-12T02:29:09;99511.40;;;20.90
67501;BMP180;54349;52.528;19.760;2023-03-12T02:31:49;99514.40;;;20.80
67501;BMP180;54349;52.528;19.760;2023-03-12T02:34:19;99521.80;;;20.78
67501;BMP180;54349;52.528;19.760;2023-03-12T02:36:48;99523.20;;;20.70
67501;BMP180;54349;52.528;19.760;2023-03-12T02:39:16;99521.40;;;20.70
67501;BMP180;54349;52.528;19.760;2023-03-12T02:41:58;99520.60;;;20.60
67501;BMP180;54349;52.528;19.760;2023-03-12T02:44:32;99524.40;;;20.60
67501;BMP180;54349;52.528;19.760;2023-03-12T02:47:01;99525.60;;;20.50
67501;BMP180;54349;52.528;19.760;2023-03-12T02:49:33;99521.80;;;20.50
67501;BMP180;54349;52.528;19.760;2023-03-12T02:52:03;99525.40;;;20.50
67501;BMP180;54349;52.528;19.760;2023-03-12T02:54:32;99525.00;;;20.40
67501;BMP180;54349;52.528;19.760;2023-03-12T02:57:00;99523.20;;;20.40
67501;BMP180;54349;52.528;19.760;2023-03-12T02:59:30;99522.00;;;20.32
67501;BMP180;54349;52.528;19.760;2023-03-12T03:02:00;99529.40;;;20.30
67501;BMP180;54349;52.528;19.760;2023-03-12T03:04:31;99527.80;;;20.30
67501;BMP180;54349;52.528;19.760;2023-03-12T03:07:02;99527.20;;;20.20
67501;BMP180;54349;52.528;19.760;2023-03-12T03:09:31;99528.60;;;20.20
67501;BMP180;54349;52.528;19.760;2023-03-12T03:11:59;99520.00;;;20.10
67501;BMP180;54349;52.528;19.760;2023-03-12T03:14:28;99516.40;;;20.10
67501;BMP180;54349;52.528;19.760;2023-03-12T03:16:57;99517.40;;;20.08
67501;BMP180;54349;52.528;19.760;2023-03-12T03:19:27;99516.20;;;20.00
67501;BMP180;54349;52.528;19.760;2023-03-12T03:21:55;99529.40;;;20.00
67501;BMP180;54349;52.528;19.760;2023-03-12T03:24:25;99533.40;;;19.96
67501;BMP180;54349;52.528;19.760;2023-03-12T03:26:53;99536.40;;;19.90
67501;BMP180;54349;52.528;19.760;2023-03-12T03:29:22;99537.20;;;19.90
67501;BMP180;54349;52.528;19.760;2023-03-12T03:31:51;99546.40;;;19.82
67501;BMP180;54349;52.528;19.760;2023-03-12T03:34:19;99542.40;;;19.80
67501;BMP180;54349;52.528;19.760;2023-03-12T03:36:48;99542.20;;;19.80
67501;BMP180;54349;52.528;19.760;2023-03-12T03:39:17;99546.40;;;19.80
67501;BMP180;54349;52.528;19.760;2023-03-12T03:41:47;99541.80;;;19.70
67501;BMP180;54349;52.528;19.760;2023-03-12T03:44:18;99555.40;;;19.70
67501;BMP180;54349;52.528;19.760;2023-03-12T03:46:50;99555.00;;;19.70
67501;BMP180;54349;52.528;19.760;2023-03-12T03:49:18;99552.60;;;19.70
67501;BMP180;54349;52.528;19.760;2023-03-12T03:51:48;99546.20;;;19.70
67501;BMP180;54349;52.528;19.760;2023-03-12T03:54:23;99548.40;;;19.70
67501;BMP180;54349;52.528;19.760;2023-03-12T03:56:52;99552.00;;;19.60
67501;BMP180;54349;52.528;19.760;2023-03-12T03:59:20;99550.60;;;19.60
67501;BMP180;54349;52.528;19.760;2023-03-12T04:01:49;99539.40;;;19.52
67501;BMP180;54349;52.528;19.760;2023-03-12T04:04:17;99541.00;;;19.50
67501;BMP180;54349;52.528;19.760;2023-03-12T04:06:46;99549.00;;;19.50
67501;BMP180;54349;52.528;19.760;2023-03-12T04:09:14;99542.80;;;19.40
67501;BMP180;54349;52.528;19.760;2023-03-12T04:11:43;99545.60;;;19.40
67501;BMP180;54349;52.528;19.760;2023-03-12T04:14:12;99548.60;;;19.40
67501;BMP180;54349;52.528;19.760;2023-03-12T04:16:43;99555.80;;;19.32
67501;BMP180;54349;52.528;19.760;2023-03-12T04:19:13;99551.80;;;19.30
67501;BMP180;54349;52.528;19.760;2023-03-12T04:21:42;99551.40;;;19.30
67501;BMP180;54349;52.528;19.760;2023-03-12T04:24:15;99547.20;;;19.30
67501;BMP180;54349;52.528;19.760;2023-03-12T04:26:44;99550.80;;;19.30
67501;BMP180;54349;52.528;19.760;2023-03-12T04:29:14;99554.40;;;19.20
67501;BMP180;54349;52.528;19.760;2023-03-12T04:31:43;99552.00;;;19.20
67501;BMP180;54349;52.528;19.760;2023-03-12T04:34:13;99551.80;;;19.20
67501;BMP180;54349;52.528;19.760;2023-03-12T04:36:44;99550.60;;;19.20
67501;BMP180;54349;52.528;19.760;2023-03-12T04:39:19;99553.80;;;19.18
67501;BMP180;54349;52.528;19.760;2023-03-12T04:41:50;99562.60;;;19.10
67501;BMP180;54349;52.528;19.760;2023-03-12T04:44:19;99558.80;;;19.10
67501;BMP180;54349;52.528;19.760;2023-03-12T04:46:48;99559.40;;;19.10
67501;BMP180;54349;52.528;19.760;2023-03-12T04:49:19;99557.00;;;19.18
67501;BMP180;54349;52.528;19.760;2023-03-12T04:51:47;99567.20;;;19.14
67501;BMP180;54349;52.528;19.760;2023-03-12T04:54:18;99573.40;;;19.20
67501;BMP180;54349;52.528;19.760;2023-03-12T04:56:49;99561.80;;;19.20
67501;BMP180;54349;52.528;19.760;2023-03-12T04:59:20;99566.20;;;19.20
67501;BMP180;54349;52.528;19.760;2023-03-12T05:01:48;99573.20;;;19.28
67501;BMP180;54349;52.528;19.760;2023-03-12T05:04:22;99575.80;;;19.30
67501;BMP180;54349;52.528;19.760;2023-03-12T05:06:50;99575.40;;;19.30
67501;BMP180;54349;52.528;19.760;2023-03-12T05:09:19;99576.40;;;19.30
67501;BMP180;54349;52.528;19.760;2023-03-12T05:11:47;99585.40;;;19.40
67501;BMP180;54349;52.528;19.760;2023-03-12T05:14:18;99585.20;;;19.40
67501;BMP180;54349;52.528;19.760;2023-03-12T05:16:48;99592.80;;;19.40
67501;BMP180;54349;52.528;19.760;2023-03-12T05:19:17;99595.80;;;19.50
67501;BMP180;54349;52.528;19.760;2023-03-12T05:21:46;99602.20;;;19.50
67501;BMP180;54349;52.528;19.760;2023-03-12T05:24:15;99613.60;;;19.60
67501;BMP180;54349;52.528;19.760;2023-03-12T05:26:43;99609.40;;;19.60
67501;BMP180;54349;52.528;19.760;2023-03-12T05:29:17;99608.60;;;19.60
67501;BMP180;54349;52.528;19.760;2023-03-12T05:31:45;99609.40;;;19.60
67501;BMP180;54349;52.528;19.760;2023-03-12T05:34:14;99620.20;;;19.66
67501;BMP180;54349;52.528;19.760;2023-03-12T05:36:45;99627.80;;;19.70
67501;BMP180;54349;52.528;19.760;2023-03-12T05:39:17;99633.80;;;19.70
67501;BMP180;54349;52.528;19.760;2023-03-12T05:41:46;99628.20;;;19.70
67501;BMP180;54349;52.528;19.760;2023-03-12T05:44:17;99638.20;;;19.70
67501;BMP180;54349;52.528;19.760;2023-03-12T05:46:52;99637.60;;;19.70
67501;BMP180;54349;52.528;19.760;2023-03-12T05:49:23;99645.00;;;19.70
67501;BMP180;54349;52.528;19.760;2023-03-12T05:51:53;99643.60;;;19.70
67501;BMP180;54349;52.528;19.760;2023-03-12T05:54:25;99644.60;;;19.70
67501;BMP180;54349;52.528;19.760;2023-03-12T05:56:53;99649.20;;;19.80
67501;BMP180;54349;52.528;19.760;2023-03-12T05:59:24;99649.00;;;19.80
67501;BMP180;54349;52.528;19.760;2023-03-12T06:01:53;99650.60;;;19.80
67501;BMP180;54349;52.528;19.760;2023-03-12T06:04:23;99654.00;;;19.80
67501;BMP180;54349;52.528;19.760;2023-03-12T06:06:54;99655.20;;;19.80
67501;BMP180;54349;52.528;19.760;2023-03-12T06:09:23;99652.80;;;19.80
67501;BMP180;54349;52.528;19.760;2023-03-12T06:11:52;99656.60;;;19.80
67501;BMP180;54349;52.528;19.760;2023-03-12T06:14:21;99657.80;;;19.80
67501;BMP180;54349;52.528;19.760;2023-03-12T06:16:50;99660.80;;;19.86
67501;BMP180;54349;52.528;19.760;2023-03-12T06:19:19;99664.40;;;19.90
67501;BMP180;54349;52.528;19.760;2023-03-12T06:21:49;99672.60;;;19.90
67501;BMP180;54349;52.528;19.760;2023-03-12T06:24:18;99671.80;;;19.90
67501;BMP180;54349;52.528;19.760;2023-03-12T06:27:07;99676.20;;;19.92
67501;BMP180;54349;52.528;19.760;2023-03-12T06:29:35;99683.20;;;19.90
67501;BMP180;54349;52.528;19.760;2023-03-12T06:32:04;99681.20;;;19.90
67501;BMP180;54349;52.528;19.760;2023-03-12T06:34:32;99686.00;;;19.90
67501;BMP180;54349;52.528;19.760;2023-03-12T06:37:01;99693.60;;;20.00
67501;BMP180;54349;52.528;19.760;2023-03-12T06:39:29;99686.20;;;19.98
67501;BMP180;54349;52.528;19.760;2023-03-12T06:41:58;99696.20;;;20.00
67501;BMP180;54349;52.528;19.760;2023-03-12T06:44:27;99701.40;;;20.00
67501;BMP180;54349;52.528;19.760;2023-03-12T06:46:55;99709.80;;;20.04
67501;BMP180;54349;52.528;19.760;2023-03-12T06:49:24;99711.80;;;20.00
67501;BMP180;54349;52.528;19.760;2023-03-12T06:51:54;99713.00;;;20.00
67501;BMP180;54349;52.528;19.760;2023-03-12T06:54:24;99716.80;;;20.00
67501;BMP180;54349;52.528;19.760;2023-03-12T06:56:54;99721.60;;;20.00
67501;BMP180;54349;52.528;19.760;2023-03-12T06:59:23;99725.60;;;20.00
67501;BMP180;54349;52.528;19.760;2023-03-12T07:01:51;99723.80;;;20.00
67501;BMP180;54349;52.528;19.760;2023-03-12T07:04:20;99727.80;;;20.00
67501;BMP180;54349;52.528;19.760;2023-03-12T07:06:49;99733.40;;;20.04
67501;BMP180;54349;52.528;19.760;2023-03-12T07:09:19;99739.40;;;20.10
67501;BMP180;54349;52.528;19.760;2023-03-12T07:11:48;99739.00;;;20.10
67501;BMP180;54349;52.528;19.760;2023-03-12T07:14:16;99743.60;;;20.10
67501;BMP180;54349;52.528;19.760;2023-03-12T07:16:47;99751.40;;;20.18
67501;BMP180;54349;52.528;19.760;2023-03-12T07:19:16;99751.80;;;20.12
67501;BMP180;54349;52.528;19.760;2023-03-12T07:21:47;99755.80;;;20.20
67501;BMP180;54349;52.528;19.760;2023-03-12T07:24:17;99759.40;;;20.20
67501;BMP180;54349;52.528;19.760;2023-03-12T07:26:45;99752.20;;;20.20
67501;BMP180;54349;52.528;19.760;2023-03-12T07:29:14;99768.20;;;20.26
67501;BMP180;54349;52.528;19.760;2023-03-12T07:31:42;99763.60;;;20.30
67501;BMP180;54349;52.528;19.760;2023-03-12T07:34:11;99770.00;;;20.40
67501;BMP180;54349;52.528;19.760;2023-03-12T07:36:40;99773.00;;;20.40
67501;BMP180;54349;52.528;19.760;2023-03-12T07:39:09;99767.00;;;20.50
67501;BMP180;54349;52.528;19.760;2023-03-12T07:41:38;99770.20;;;20.50
67501;BMP180;54349;52.528;19.760;2023-03-12T07:44:07;99774.80;;;20.54
67501;BMP180;54349;52.528;19.760;2023-03-12T07:46:37;99769.60;;;20.68
67501;BMP180;54349;52.528;19.760;2023-03-12T07:49:05;99775.80;;;20.70
67501;BMP180;54349;52.528;19.760;2023-03-12T07:51:34;99774.40;;;20.74
67501;BMP180;54349;52.528;19.760;2023-03-12T07:54:03;99789.40;;;20.80
67501;BMP180;54349;52.528;19.760;2023-03-12T07:56:31;99788.20;;;20.70
67501;BMP180;54349;52.528;19.760;2023-03-12T07:59:04;99788.60;;;20.80
67501;BMP180;54349;52.528;19.760;2023-03-12T08:01:32;99796.40;;;20.94
67501;BMP180;54349;52.528;19.760;2023-03-12T08:04:05;99799.60;;;21.00
67501;BMP180;54349;52.528;19.760;2023-03-12T08:06:34;99801.40;;;21.00
67501;BMP180;54349;52.528;19.760;2023-03-12T08:09:03;99804.40;;;20.90
67501;BMP180;54349;52.528;19.760;2023-03-12T08:11:33;99809.00;;;20.90
67501;BMP180;54349;52.528;19.760;2023-03-12T08:14:05;99812.40;;;20.90
67501;BMP180;54349;52.528;19.760;2023-03-12T08:16:34;99810.80;;;20.90
67501;BMP180;54349;52.528;19.760;2023-03-12T08:19:02;99817.40;;;20.90
67501;BMP180;54349;52.528;19.760;2023-03-12T08:21:30;99814.20;;;20.90
67501;BMP180;54349;52.528;19.760;2023-03-12T08:23:59;99813.60;;;20.90
67501;BMP180;54349;52.528;19.760;2023-03-12T08:26:28;99811.60;;;20.90
67501;BMP180;54349;52.528;19.760;2023-03-12T08:28:57;99800.60;;;20.90
67501;BMP180;54349;52.528;19.760;2023-03-12T08:31:27;99812.00;;;20.90
67501;BMP180;54349;52.528;19.760;2023-03-12T08:33:56;99812.80;;;20.90
67501;BMP180;54349;52.528;19.760;2023-03-12T08:36:25;99824.00;;;20.90
67501;BMP180;54349;52.528;19.760;2023-03-12T08:38:54;99816.00;;;20.90
67501;BMP180;54349;52.528;19.760;2023-03-12T08:41:23;99828.40;;;21.00
67501;BMP180;54349;52.528;19.760;2023-03-12T08:43:51;99829.20;;;21.10
67501;BMP180;54349;52.528;19.760;2023-03-12T08:46:20;99826.00;;;21.10
67501;BMP180;54349;52.528;19.760;2023-03-12T08:48:48;99832.00;;;21.10
67501;BMP180;54349;52.528;19.760;2023-03-12T08:51:17;99832.40;;;21.02
67501;BMP180;54349;52.528;19.760;2023-03-12T08:53:46;99833.00;;;21.10
67501;BMP180;54349;52.528;19.760;2023-03-12T08:56:15;99847.20;;;21.08
67501;BMP180;54349;52.528;19.760;2023-03-12T08:58:44;99842.40;;;21.00
67501;BMP180;54349;52.528;19.760;2023-03-12T09:01:13;99851.80;;;21.00
67501;BMP180;54349;52.528;19.760;2023-03-12T09:03:42;99847.00;;;21.00
67501;BMP180;54349;52.528;19.760;2023-03-12T09:06:12;99860.40;;;21.02
67501;BMP180;54349;52.528;19.760;2023-03-12T09:08:45;99863.80;;;21.16
67501;BMP180;54349;52.528;19.760;2023-03-12T09:11:14;99868.20;;;21.22
67501;BMP180;54349;52.528;19.760;2023-03-12T09:13:44;99871.40;;;21.30
67501;BMP180;54349;52.528;19.760;2023-03-12T09:16:33;99870.60;;;21.40
67501;BMP180;54349;52.528;19.760;2023-03-12T09:19:03;99880.40;;;21.40
67501;BMP180;54349;52.528;19.760;2023-03-12T09:21:32;99872.40;;;21.30
67501;BMP180;54349;52.528;19.760;2023-03-12T09:24:01;99880.40;;;21.40
67501;BMP180;54349;52.528;19.760;2023-03-12T09:26:30;99878.20;;;21.50
67501;BMP180;54349;52.528;19.760;2023-03-12T09:29:00;99891.00;;;21.50
67501;BMP180;54349;52.528;19.760;2023-03-12T09:31:29;99900.20;;;21.60
67501;BMP180;54349;52.528;19.760;2023-03-12T09:33:58;99894.20;;;21.60
67501;BMP180;54349;52.528;19.760;2023-03-12T09:36:27;99891.00;;;21.70
67501;BMP180;54349;52.528;19.760;2023-03-12T09:38:56;99898.00;;;21.70
67501;BMP180;54349;52.528;19.760;2023-03-12T09:41:30;99900.00;;;21.76
67501;BMP180;54349;52.528;19.760;2023-03-12T09:44:34;99897.60;;;21.80
67501;BMP180;54349;52.528;19.760;2023-03-12T09:47:31;99897.80;;;21.70
67501;BMP180;54349;52.528;19.760;2023-03-12T09:50:36;99901.40;;;21.60
67501;BMP180;54349;52.528;19.760;2023-03-12T09:53:33;99899.60;;;21.50
67501;BMP180;54349;52.528;19.760;2023-03-12T09:56:04;99905.00;;;21.40
67501;BMP180;54349;52.528;19.760;2023-03-12T09:58:37;99896.80;;;21.48
67501;BMP180;54349;52.528;19.760;2023-03-12T10:01:31;99900.60;;;21.50
67501;BMP180;54349;52.528;19.760;2023-03-12T10:04:29;99905.00;;;21.50
67501;BMP180;54349;52.528;19.760;2023-03-12T10:07:35;99916.60;;;21.50
67501;BMP180;54349;52.528;19.760;2023-03-12T10:10:43;99907.40;;;21.50
67501;BMP180;54349;52.528;19.760;2023-03-12T10:19:41;99911.60;;;21.70
67501;BMP180;54349;52.528;19.760;2023-03-12T10:22:59;99921.00;;;21.70
67501;BMP180;54349;52.528;19.760;2023-03-12T10:25:46;99922.20;;;21.80
67501;BMP180;54349;52.528;19.760;2023-03-12T10:31:04;99921.80;;;21.80
67501;BMP180;54349;52.528;19.760;2023-03-12T10:33:55;99930.20;;;21.70
67501;BMP180;54349;52.528;19.760;2023-03-12T10:36:33;99928.20;;;21.70
67501;BMP180;54349;52.528;19.760;2023-03-12T10:39:12;99933.20;;;21.70
67501;BMP180;54349;52.528;19.760;2023-03-12T10:41:45;99935.40;;;21.70
67501;BMP180;54349;52.528;19.760;2023-03-12T10:44:21;99940.00;;;21.60
67501;BMP180;54349;52.528;19.760;2023-03-12T10:49:46;99951.40;;;21.60
67501;BMP180;54349;52.528;19.760;2023-03-12T10:52:22;99953.40;;;21.66
67501;BMP180;54349;52.528;19.760;2023-03-12T10:54:52;99950.60;;;21.60
67501;BMP180;54349;52.528;19.760;2023-03-12T10:57:20;99954.20;;;21.60
67501;BMP180;54349;52.528;19.760;2023-03-12T10:59:49;99955.40;;;21.60
67501;BMP180;54349;52.528;19.760;2023-03-12T11:02:36;99953.60;;;21.62
67501;BMP180;54349;52.528;19.760;2023-03-12T11:07:53;99960.40;;;21.50
67501;BMP180;54349;52.528;19.760;2023-03-12T11:10:44;99955.80;;;21.50
67501;BMP180;54349;52.528;19.760;2023-03-12T11:21:25;99953.80;;;21.80
67501;BMP180;54349;52.528;19.760;2023-03-12T11:26:32;99953.20;;;21.90
67501;BMP180;54349;52.528;19.760;2023-03-12T11:29:29;99965.60;;;21.82
67501;BMP180;54349;52.528;19.760;2023-03-12T11:34:34;99962.20;;;21.90
67501;BMP180;54349;52.528;19.760;2023-03-12T11:51:54;99976.20;;;22.08
67501;BMP180;54349;52.528;19.760;2023-03-12T11:55:00;99977.80;;;22.00
67501;BMP180;54349;52.528;19.760;2023-03-12T11:57:52;99975.40;;;22.06
67501;BMP180;54349;52.528;19.760;2023-03-12T12:00:39;99978.20;;;22.10
67501;BMP180;54349;52.528;19.760;2023-03-12T12:07:04;99987.60;;;22.20
67501;BMP180;54349;52.528;19.760;2023-03-12T12:10:19;100001.40;;;22.20
67501;BMP180;54349;52.528;19.760;2023-03-12T12:16:33;99995.80;;;22.20
67501;BMP180;54349;52.528;19.760;2023-03-12T12:19:50;100004.00;;;22.00
67501;BMP180;54349;52.528;19.760;2023-03-12T12:28:03;100009.60;;;21.92
67501;BMP180;54349;52.528;19.760;2023-03-12T12:33:46;100011.60;;;21.94
67501;BMP180;54349;52.528;19.760;2023-03-12T12:36:18;100017.40;;;22.00
67501;BMP180;54349;52.528;19.760;2023-03-12T12:38:55;100021.60;;;22.00
67501;BMP180;54349;52.528;19.760;2023-03-12T12:41:35;100024.40;;;21.94
67501;BMP180;54349;52.528;19.760;2023-03-12T12:44:15;100023.40;;;21.90
67501;BMP180;54349;52.528;19.760;2023-03-12T12:46:57;100028.40;;;21.90
67501;BMP180;54349;52.528;19.760;2023-03-12T12:49:48;100029.60;;;21.90
67501;BMP180;54349;52.528;19.760;2023-03-12T12:52:22;100028.80;;;21.88
67501;BMP180;54349;52.528;19.760;2023-03-12T12:55:20;100036.00;;;21.80
67501;BMP180;54349;52.528;19.760;2023-03-12T12:58:22;100034.00;;;21.80
67501;BMP180;54349;52.528;19.760;2023-03-12T13:00:58;100036.00;;;21.72
67501;BMP180;54349;52.528;19.760;2023-03-12T13:03:28;100034.60;;;21.70
67501;BMP180;54349;52.528;19.760;2023-03-12T13:06:00;100033.40;;;21.76
67501;BMP180;54349;52.528;19.760;2023-03-12T13:09:00;100035.20;;;21.80
67501;BMP180;54349;52.528;19.760;2023-03-12T13:11:43;100032.60;;;21.70
67501;BMP180;54349;52.528;19.760;2023-03-12T13:14:37;100037.60;;;21.60
67501;BMP180;54349;52.528;19.760;2023-03-12T13:17:34;100038.60;;;21.60
67501;BMP180;54349;52.528;19.760;2023-03-12T13:31:00;100052.20;;;21.84
67501;BMP180;54349;52.528;19.760;2023-03-12T13:33:42;100056.80;;;21.90
67501;BMP180;54349;52.528;19.760;2023-03-12T13:44:29;100050.60;;;21.90
67501;BMP180;54349;52.528;19.760;2023-03-12T13:47:36;100053.80;;;21.84
67501;BMP180;54349;52.528;19.760;2023-03-12T13:50:14;100058.40;;;21.80
67501;BMP180;54349;52.528;19.760;2023-03-12T13:53:05;100063.00;;;21.80
67501;BMP180;54349;52.528;19.760;2023-03-12T13:55:36;100059.80;;;21.70
67501;BMP180;54349;52.528;19.760;2023-03-12T13:58:12;100056.80;;;21.70
67501;BMP180;54349;52.528;19.760;2023-03-12T14:01:05;100061.40;;;21.70
67501;BMP180;54349;52.528;19.760;2023-03-12T14:03:47;100059.20;;;21.70
67501;BMP180;54349;52.528;19.760;2023-03-12T14:06:21;100058.20;;;21.70
67501;BMP180;54349;52.528;19.760;2023-03-12T14:15:34;100060.80;;;21.80
67501;BMP180;54349;52.528;19.760;2023-03-12T14:18:25;100054.40;;;21.80
67501;BMP180;54349;52.528;19.760;2023-03-12T14:20:58;100057.80;;;21.90
67501;BMP180;54349;52.528;19.760;2023-03-12T14:23:35;100063.20;;;21.90
67501;BMP180;54349;52.528;19.760;2023-03-12T14:26:05;100057.80;;;22.00
67501;BMP180;54349;52.528;19.760;2023-03-12T14:28:40;100054.00;;;22.10
67501;BMP180;54349;52.528;19.760;2023-03-12T14:31:16;100059.00;;;22.20
67501;BMP180;54349;52.528;19.760;2023-03-12T14:36:54;100060.80;;;22.20
67501;BMP180;54349;52.528;19.760;2023-03-12T14:39:42;100058.40;;;22.20
67501;BMP180;54349;52.528;19.760;2023-03-12T14:42:21;100062.60;;;22.20
67501;BMP180;54349;52.528;19.760;2023-03-12T14:45:17;100061.00;;;22.10
67501;BMP180;54349;52.528;19.760;2023-03-12T14:47:57;100057.80;;;22.06
67501;BMP180;54349;52.528;19.760;2023-03-12T14:50:38;100065.60;;;22.10
67501;BMP180;54349;52.528;19.760;2023-03-12T14:53:19;100067.60;;;22.06
67501;BMP180;54349;52.528;19.760;2023-03-12T14:58:48;100067.00;;;22.00
67501;BMP180;54349;52.528;19.760;2023-03-12T15:01:32;100066.60;;;22.00
67501;BMP180;54349;52.528;19.760;2023-03-12T15:04:06;100062.80;;;22.00
67501;BMP180;54349;52.528;19.760;2023-03-12T15:07:03;100063.60;;;22.00
67501;BMP180;54349;52.528;19.760;2023-03-12T15:09:35;100064.00;;;21.94
67501;BMP180;54349;52.528;19.760;2023-03-12T15:12:16;100060.00;;;21.92
67501;BMP180;54349;52.528;19.760;2023-03-12T15:14:51;100067.00;;;22.00
67501;BMP180;54349;52.528;19.760;2023-03-12T15:17:24;100064.40;;;22.00
67501;BMP180;54349;52.528;19.760;2023-03-12T15:19:56;100070.20;;;22.00
67501;BMP180;54349;52.528;19.760;2023-03-12T15:22:26;100071.20;;;21.90
67501;BMP180;54349;52.528;19.760;2023-03-12T15:24:55;100070.60;;;21.90
67501;BMP180;54349;52.528;19.760;2023-03-12T15:29:51;100070.00;;;21.90
67501;BMP180;54349;52.528;19.760;2023-03-12T15:32:23;100075.20;;;21.90
67501;BMP180;54349;52.528;19.760;2023-03-12T15:34:54;100072.40;;;21.90
67501;BMP180;54349;52.528;19.760;2023-03-12T15:37:34;100073.40;;;21.90
67501;BMP180;54349;52.528;19.760;2023-03-12T15:40:29;100072.40;;;21.90
67501;BMP180;54349;52.528;19.760;2023-03-12T15:42:58;100074.40;;;21.90
67501;BMP180;54349;52.528;19.760;2023-03-12T15:45:37;100069.40;;;21.88
67501;BMP180;54349;52.528;19.760;2023-03-12T15:48:22;100076.80;;;21.82
67501;BMP180;54349;52.528;19.760;2023-03-12T15:50:53;100073.00;;;21.80
67501;BMP180;54349;52.528;19.760;2023-03-12T15:53:23;100079.20;;;21.80
67501;BMP180;54349;52.528;19.760;2023-03-12T15:56:03;100079.20;;;21.80
67501;BMP180;54349;52.528;19.760;2023-03-12T15:58:39;100078.40;;;21.80
67501;BMP180;54349;52.528;19.760;2023-03-12T16:01:12;100079.20;;;21.80
67501;BMP180;54349;52.528;19.760;2023-03-12T16:03:43;100081.00;;;21.80
67501;BMP180;54349;52.528;19.760;2023-03-12T16:06:17;100085.00;;;21.78
67501;BMP180;54349;52.528;19.760;2023-03-12T16:08:49;100083.80;;;21.70
67501;BMP180;54349;52.528;19.760;2023-03-12T16:11:26;100084.40;;;21.70